sensor_id;sensor_type;location;lat;lon;timestamp;pressure;altitude;pressure_sealevel;temperature;humidity
62710;BME280;48770;51.624;5.886;2023-05-29T00:00:22;102119.81;;;25.02;33.59
62710;BME280;48770;51.624;5.886;2023-05-29T00:02:49;102131.03;;;25.02;33.31
62710;BME280;48770;51.624;5.886;2023-05-29T00:05:16;102133.00;;;25.02;33.27
62710;BME280;48770;51.624;5.886;2023-05-29T00:07:42;102127.75;;;25.00;33.25
62710;BME280;48770;51.624;5.886;2023-05-29T00:10:09;102134.16;;;25.01;33.23
62710;BME280;48770;51.624;5.886;2023-05-29T00:12:35;102136.97;;;25.01;33.35
62710;BME280;48770;51.624;5.886;2023-05-29T00:15:01;102132.53;;;25.00;33.24
62710;BME280;48770;51.624;5.886;2023-05-29T00:17:28;102142.09;;;24.99;33.38
62710;BME280;48770;51.624;5.886;2023-05-29T00:19:54;102132.81;;;24.98;33.39
62710;BME280;48770;51.624;5.886;2023-05-29T00:22:19;102141.56;;;24.97;33.07
62710;BME280;48770;51.624;5.886;2023-05-29T00:24:45;102145.53;;;24.96;33.29
62710;BME280;48770;51.624;5.886;2023-05-29T00:27:11;102150.31;;;24.95;33.03
62710;BME280;48770;51.624;5.886;2023-05-29T00:29:37;102152.31;;;24.95;32.89
62710;BME280;48770;51.624;5.886;2023-05-29T00:32:06;102156.25;;;24.94;33.03
62710;BME280;48770;51.624;5.886;2023-05-29T00:34:31;102152.66;;;24.93;33.04
62710;BME280;48770;51.624;5.886;2023-05-29T00:36:57;102155.81;;;24.91;33.02
62710;BME280;48770;51.624;5.886;2023-05-29T00:39:22;102154.16;;;24.90;32.85
62710;BME280;48770;51.624;5.886;2023-05-29T00:41:48;102160.94;;;24.89;32.86
62710;BME280;48770;51.624;5.886;2023-05-29T00:44:19;102159.75;;;24.90;32.68
62710;BME280;48770;51.624;5.886;2023-05-29T00:46:45;102164.91;;;24.88;32.72
62710;BME280;48770;51.624;5.886;2023-05-29T00:49:12;102166.06;;;24.87;32.66
62710;BME280;48770;51.624;5.886;2023-05-29T00:51:37;102167.22;;;24.86;32.63
62710;BME280;48770;51.624;5.886;2023-05-29T00:54:05;102172.81;;;24.86;32.62
62710;BME280;48770;51.624;5.886;2023-05-29T00:56:32;102176.78;;;24.85;32.33
62710;BME280;48770;51.624;5.886;2023-05-29T00:58:57;102173.53;;;24.83;32.04
62710;BME280;48770;51.624;5.886;2023-05-29T01:01:23;102181.09;;;24.83;32.12
62710;BME280;48770;51.624;5.886;2023-05-29T01:03:49;102179.94;;;24.84;32.18
62710;BME280;48770;51.624;5.886;2023-05-29T01:06:18;102183.44;;;24.81;32.09
62710;BME280;48770;51.624;5.886;2023-05-29T01:08:44;102180.28;;;24.82;32.20
62710;BME280;48770;51.624;5.886;2023-05-29T01:11:31;102180.97;;;24.79;32.04
62710;BME280;48770;51.624;5.886;2023-05-29T01:14:06;102182.16;;;24.78;31.79
62710;BME280;48770;51.624;5.886;2023-05-29T01:24:52;102191.94;;;24.72;31.79
62710;BME280;48770;51.624;5.886;2023-05-29T01:27:24;102192.75;;;24.73;31.72
62710;BME280;48770;51.624;5.886;2023-05-29T01:29:51;102189.94;;;24.73;31.66
62710;BME280;48770;51.624;5.886;2023-05-29T01:32:17;102198.66;;;24.71;31.48
62710;BME280;48770;51.624;5.886;2023-05-29T01:34:42;102198.66;;;24.71;31.63
62710;BME280;48770;51.624;5.886;2023-05-29T01:37:08;102201.00;;;24.69;31.68
62710;BME280;48770;51.624;5.886;2023-05-29T01:39:33;102204.59;;;24.70;31.36
62710;BME280;48770;51.624;5.886;2023-05-29T01:42:00;102199.00;;;24.70;31.41
62710;BME280;48770;51.624;5.886;2023-05-29T01:44:27;102204.94;;;24.68;31.27
62710;BME280;48770;51.624;5.886;2023-05-29T01:46:53;102193.75;;;24.68;31.36
62710;BME280;48770;51.624;5.886;2023-05-29T01:49:20;102186.53;;;24.67;31.14
62710;BME280;48770;51.624;5.886;2023-05-29T01:51:46;102175.69;;;24.66;31.43
62710;BME280;48770;51.624;5.886;2023-05-29T01:54:12;102195.28;;;24.66;30.98
62710;BME280;48770;51.624;5.886;2023-05-29T01:56:38;102192.00;;;24.64;31.28
62710;BME280;48770;51.624;5.886;2023-05-29T01:59:04;102194.81;;;24.64;31.26
62710;BME280;48770;51.624;5.886;2023-05-29T02:01:29;102172.78;;;24.62;31.19
62710;BME280;48770;51.624;5.886;2023-05-29T02:03:55;102186.75;;;24.62;31.15
62710;BME280;48770;51.624;5.886;2023-05-29T02:06:21;102186.28;;;24.60;30.97
62710;BME280;48770;51.624;5.886;2023-05-29T02:08:46;102185.47;;;24.59;31.12
62710;BME280;48770;51.624;5.886;2023-05-29T02:11:13;102184.66;;;24.59;31.05
62710;BME280;48770;51.624;5.886;2023-05-29T02:13:38;102185.00;;;24.57;31.09
62710;BME280;48770;51.624;5.886;2023-05-29T02:16:04;102188.63;;;24.58;31.06
62710;BME280;48770;51.624;5.886;2023-05-29T02:18:30;102187.00;;;24.57;31.16
62710;BME280;48770;51.624;5.886;2023-05-29T02:20:56;102191.31;;;24.54;30.83
62710;BME280;48770;51.624;5.886;2023-05-29T02:23:21;102189.66;;;24.53;30.71
62710;BME280;48770;51.624;5.886;2023-05-29T02:25:47;102196.06;;;24.54;30.79
62710;BME280;48770;51.624;5.886;2023-05-29T02:28:12;102186.06;;;24.53;31.00
62710;BME280;48770;51.624;5.886;2023-05-29T02:30:38;102194.78;;;24.51;30.87
62710;BME280;48770;51.624;5.886;2023-05-29T02:33:03;102198.75;;;24.50;30.99
62710;BME280;48770;51.624;5.886;2023-05-29T02:35:29;102192.34;;;24.50;30.71
62710;BME280;48770;51.624;5.886;2023-05-29T02:37:54;102210.28;;;24.49;31.04
62710;BME280;48770;51.624;5.886;2023-05-29T02:40:20;102201.91;;;24.49;30.73
62710;BME280;48770;51.624;5.886;2023-05-29T02:42:46;102209.47;;;24.48;30.85
62710;BME280;48770;51.624;5.886;2023-05-29T02:45:11;102214.25;;;24.48;30.86
62710;BME280;48770;51.624;5.886;2023-05-29T02:47:37;102213.75;;;24.46;30.72
62710;BME280;48770;51.624;5.886;2023-05-29T02:50:03;102220.19;;;24.46;30.70
62710;BME280;48770;51.624;5.886;2023-05-29T02:52:29;102221.31;;;24.45;30.67
62710;BME280;48770;51.624;5.886;2023-05-29T02:54:55;102220.50;;;24.45;30.89
62710;BME280;48770;51.624;5.886;2023-05-29T02:57:21;102221.66;;;24.44;30.68
62710;BME280;48770;51.624;5.886;2023-05-29T02:59:47;102220.84;;;24.43;30.63
62710;BME280;48770;51.624;5.886;2023-05-29T03:02:12;102211.97;;;24.41;30.86
62710;BME280;48770;51.624;5.886;2023-05-29T03:04:37;102215.94;;;24.40;30.86
62710;BME280;48770;51.624;5.886;2023-05-29T03:07:03;102209.88;;;24.38;30.85
62710;BME280;48770;51.624;5.886;2023-05-29T03:09:28;102205.09;;;24.39;30.83
62710;BME280;48770;51.624;5.886;2023-05-29T03:11:54;102210.22;;;24.37;30.69
62710;BME280;48770;51.624;5.886;2023-05-29T03:14:19;102209.41;;;24.36;30.89
62710;BME280;48770;51.624;5.886;2023-05-29T03:16:46;102210.22;;;24.37;30.55
62710;BME280;48770;51.624;5.886;2023-05-29T03:19:12;102208.59;;;24.36;30.52
62710;BME280;48770;51.624;5.886;2023-05-29T03:21:37;102205.31;;;24.34;30.64
62710;BME280;48770;51.624;5.886;2023-05-29T03:24:03;102215.69;;;24.33;30.90
62710;BME280;48770;51.624;5.886;2023-05-29T03:26:29;102198.91;;;24.33;30.65
62710;BME280;48770;51.624;5.886;2023-05-29T03:28:54;102208.47;;;24.32;30.83
62710;BME280;48770;51.624;5.886;2023-05-29T03:31:20;102218.81;;;24.32;30.75
62710;BME280;48770;51.624;5.886;2023-05-29T03:33:45;102221.97;;;24.30;30.71
62710;BME280;48770;51.624;5.886;2023-05-29T03:36:11;102225.94;;;24.29;30.58
62710;BME280;48770;51.624;5.886;2023-05-29T03:38:36;102229.88;;;24.28;30.82
62710;BME280;48770;51.624;5.886;2023-05-29T03:41:01;102229.88;;;24.28;30.67
62710;BME280;48770;51.624;5.886;2023-05-29T03:43:27;102233.81;;;24.27;30.49
62710;BME280;48770;51.624;5.886;2023-05-29T03:45:52;102225.75;;;24.25;30.74
62710;BME280;48770;51.624;5.886;2023-05-29T03:48:17;102233.34;;;24.25;30.55
62710;BME280;48770;51.624;5.886;2023-05-29T03:50:45;102226.09;;;24.24;30.60
62710;BME280;48770;51.624;5.886;2023-05-29T03:53:11;102231.69;;;24.24;30.65
62710;BME280;48770;51.624;5.886;2023-05-29T03:55:36;102227.28;;;24.23;30.78
62710;BME280;48770;51.624;5.886;2023-05-29T03:58:01;102234.84;;;24.22;30.48
62710;BME280;48770;51.624;5.886;2023-05-29T04:00:27;102239.09;;;24.20;30.70
62710;BME280;48770;51.624;5.886;2023-05-29T04:02:52;102243.88;;;24.19;30.62
62710;BME280;48770;51.624;5.886;2023-05-29T04:05:17;102241.91;;;24.20;30.51
62710;BME280;48770;51.624;5.886;2023-05-29T04:07:43;102243.06;;;24.19;30.79
62710;BME280;48770;51.624;5.886;2023-05-29T04:10:09;102247.84;;;24.18;30.68
62710;BME280;48770;51.624;5.886;2023-05-29T04:12:34;102254.25;;;24.19;30.74
62710;BME280;48770;51.624;5.886;2023-05-29T04:15:00;102260.16;;;24.17;30.63
62710;BME280;48770;51.624;5.886;2023-05-29T04:17:25;102261.34;;;24.16;30.70
62710;BME280;48770;51.624;5.886;2023-05-29T04:19:51;102256.91;;;24.15;30.72
62710;BME280;48770;51.624;5.886;2023-05-29T04:22:16;102266.91;;;24.16;30.90
62710;BME280;48770;51.624;5.886;2023-05-29T04:24:41;102255.28;;;24.14;30.87
62710;BME280;48770;51.624;5.886;2023-05-29T04:27:08;102263.66;;;24.14;30.77
62710;BME280;48770;51.624;5.886;2023-05-29T04:29:34;102258.06;;;24.14;30.62
62710;BME280;48770;51.624;5.886;2023-05-29T04:32:00;102258.41;;;24.13;30.89
62710;BME280;48770;51.624;5.886;2023-05-29T04:34:29;102264.00;;;24.13;30.52
62710;BME280;48770;51.624;5.886;2023-05-29T04:36:56;102263.19;;;24.12;30.52
62710;BME280;48770;51.624;5.886;2023-05-29T04:39:23;102278.31;;;24.11;30.67
62710;BME280;48770;51.624;5.886;2023-05-29T04:41:49;102271.56;;;24.12;30.63
62710;BME280;48770;51.624;5.886;2023-05-29T04:44:15;102264.34;;;24.11;30.65
62710;BME280;48770;51.624;5.886;2023-05-29T04:46:40;102274.69;;;24.11;30.84
62710;BME280;48770;51.624;5.886;2023-05-29T04:49:09;102272.72;;;24.11;30.77
62710;BME280;48770;51.624;5.886;2023-05-29T04:51:35;102260.72;;;24.11;30.70
62710;BME280;48770;51.624;5.886;2023-05-29T04:54:01;102269.09;;;24.11;30.50
62710;BME280;48770;51.624;5.886;2023-05-29T04:56:27;102261.41;;;24.08;30.48
62710;BME280;48770;51.624;5.886;2023-05-29T04:58:53;102272.25;;;24.09;30.77
62710;BME280;48770;51.624;5.886;2023-05-29T05:01:18;102265.03;;;24.08;30.55
62710;BME280;48770;51.624;5.886;2023-05-29T05:03:44;102270.59;;;24.08;30.61
62710;BME280;48770;51.624;5.886;2023-05-29T05:06:10;102267.81;;;24.08;30.75
62710;BME280;48770;51.624;5.886;2023-05-29T05:08:36;102263.38;;;24.07;30.75
62710;BME280;48770;51.624;5.886;2023-05-29T05:11:02;102268.63;;;24.09;30.73
62710;BME280;48770;51.624;5.886;2023-05-29T05:13:27;102268.97;;;24.07;30.41
62710;BME280;48770;51.624;5.886;2023-05-29T05:15:53;102277.34;;;24.07;30.67
62710;BME280;48770;51.624;5.886;2023-05-29T05:18:19;102272.13;;;24.06;30.43
62710;BME280;48770;51.624;5.886;2023-05-29T05:20:44;102286.91;;;24.06;30.53
62710;BME280;48770;51.624;5.886;2023-05-29T05:23:10;102288.06;;;24.05;30.55
62710;BME280;48770;51.624;5.886;2023-05-29T05:25:36;102288.06;;;24.05;30.86
62710;BME280;48770;51.624;5.886;2023-05-29T05:28:02;102294.47;;;24.06;30.60
62710;BME280;48770;51.624;5.886;2023-05-29T05:30:28;102297.25;;;24.06;30.62
62710;BME280;48770;51.624;5.886;2023-05-29T05:32:53;102302.03;;;24.05;30.41
62710;BME280;48770;51.624;5.886;2023-05-29T05:35:19;102294.47;;;24.06;30.79
62710;BME280;48770;51.624;5.886;2023-05-29T05:37:45;102302.03;;;24.05;30.63
62710;BME280;48770;51.624;5.886;2023-05-29T05:40:10;102291.69;;;24.06;30.36
62710;BME280;48770;51.624;5.886;2023-05-29T05:42:36;102293.66;;;24.05;30.55
62710;BME280;48770;51.624;5.886;2023-05-29T05:45:01;102283.63;;;24.04;30.67
62710;BME280;48770;51.624;5.886;2023-05-29T05:47:28;102286.44;;;24.04;30.14
62710;BME280;48770;51.624;5.886;2023-05-29T05:49:53;102287.25;;;24.05;30.44
62710;BME280;48770;51.624;5.886;2023-05-29T05:52:19;102290.03;;;24.05;30.45
62710;BME280;48770;51.624;5.886;2023-05-29T05:54:45;102284.44;;;24.05;30.46
62710;BME280;48770;51.624;5.886;2023-05-29T05:57:11;102292.84;;;24.05;30.52
62710;BME280;48770;51.624;5.886;2023-05-29T05:59:36;102290.84;;;24.05;30.48
62710;BME280;48770;51.624;5.886;2023-05-29T06:02:02;102290.03;;;24.05;30.49
62710;BME280;48770;51.624;5.886;2023-05-29T06:04:29;102288.06;;;24.05;30.63
62710;BME280;48770;51.624;5.886;2023-05-29T06:06:54;102289.22;;;24.04;30.27
62710;BME280;48770;51.624;5.886;2023-05-29T06:09:20;102295.63;;;24.05;30.66
62710;BME280;48770;51.624;5.886;2023-05-29T06:11:46;102296.44;;;24.05;30.54
62710;BME280;48770;51.624;5.886;2023-05-29T06:14:11;102294.34;;;24.02;30.45
62710;BME280;48770;51.624;5.886;2023-05-29T06:16:36;102297.94;;;24.03;30.71
62710;BME280;48770;51.624;5.886;2023-05-29T06:19:02;102301.56;;;24.03;30.70
62710;BME280;48770;51.624;5.886;2023-05-29T06:21:27;102302.72;;;24.02;30.55
62710;BME280;48770;51.624;5.886;2023-05-29T06:23:53;102302.72;;;24.02;30.76
62710;BME280;48770;51.624;5.886;2023-05-29T06:26:18;102312.72;;;24.03;30.50
62710;BME280;48770;51.624;5.886;2023-05-29T06:28:44;102317.50;;;24.03;30.25
62710;BME280;48770;51.624;5.886;2023-05-29T06:31:09;102318.31;;;24.03;30.29
62710;BME280;48770;51.624;5.886;2023-05-29T06:33:36;102314.38;;;24.04;30.66
62710;BME280;48770;51.624;5.886;2023-05-29T06:36:02;102319.13;;;24.04;30.49
62710;BME280;48770;51.624;5.886;2023-05-29T06:38:27;102318.31;;;24.03;30.41
62710;BME280;48770;51.624;5.886;2023-05-29T06:40:53;102310.75;;;24.04;30.49
62710;BME280;48770;51.624;5.886;2023-05-29T06:43:18;102307.97;;;24.04;30.69
62710;BME280;48770;51.624;5.886;2023-05-29T06:45:43;102309.94;;;24.03;30.74
62710;BME280;48770;51.624;5.886;2023-05-29T06:48:09;102308.78;;;24.04;30.45
62710;BME280;48770;51.624;5.886;2023-05-29T06:50:34;102304.34;;;24.03;30.43
62710;BME280;48770;51.624;5.886;2023-05-29T06:52:59;102315.19;;;24.05;30.98
62710;BME280;48770;51.624;5.886;2023-05-29T06:55:25;102316.00;;;24.05;30.48
62710;BME280;48770;51.624;5.886;2023-05-29T06:57:50;102315.19;;;24.05;30.55
62710;BME280;48770;51.624;5.886;2023-05-29T07:00:17;102316.81;;;24.06;30.66
62710;BME280;48770;51.624;5.886;2023-05-29T07:02:43;102312.06;;;24.06;30.72
62710;BME280;48770;51.624;5.886;2023-05-29T07:05:08;102305.66;;;24.06;30.67
62710;BME280;48770;51.624;5.886;2023-05-29T07:07:33;102318.78;;;24.05;30.57
62710;BME280;48770;51.624;5.886;2023-05-29T07:09:59;102316.81;;;24.06;30.66
62710;BME280;48770;51.624;5.886;2023-05-29T07:12:24;102323.22;;;24.06;30.56
62710;BME280;48770;51.624;5.886;2023-05-29T07:14:50;102318.47;;;24.07;30.66
62710;BME280;48770;51.624;5.886;2023-05-29T07:17:15;102322.41;;;24.06;30.92
62710;BME280;48770;51.624;5.886;2023-05-29T07:19:41;102320.44;;;24.06;30.56
62710;BME280;48770;51.624;5.886;2023-05-29T07:22:06;102324.03;;;24.07;30.53
62710;BME280;48770;51.624;5.886;2023-05-29T07:24:32;102323.22;;;24.06;30.74
62710;BME280;48770;51.624;5.886;2023-05-29T07:26:57;102326.84;;;24.07;30.78
62710;BME280;48770;51.624;5.886;2023-05-29T07:29:23;102329.28;;;24.08;30.72
62710;BME280;48770;51.624;5.886;2023-05-29T07:31:49;102329.28;;;24.08;30.66
62710;BME280;48770;51.624;5.886;2023-05-29T07:34:15;102330.09;;;24.09;30.56
62710;BME280;48770;51.624;5.886;2023-05-29T07:37:03;102326.84;;;24.07;30.91
62710;BME280;48770;51.624;5.886;2023-05-29T07:39:30;102330.09;;;24.09;30.77
62710;BME280;48770;51.624;5.886;2023-05-29T07:41:55;102334.88;;;24.08;30.72
62710;BME280;48770;51.624;5.886;2023-05-29T07:44:21;102343.75;;;24.10;30.53
62710;BME280;48770;51.624;5.886;2023-05-29T07:46:47;102332.56;;;24.10;30.93
62710;BME280;48770;51.624;5.886;2023-05-29T07:49:12;102337.00;;;24.11;30.61
62710;BME280;48770;51.624;5.886;2023-05-29T07:51:38;102336.19;;;24.11;30.74
62710;BME280;48770;51.624;5.886;2023-05-29T07:54:03;102338.97;;;24.11;30.45
62710;BME280;48770;51.624;5.886;2023-05-29T07:56:28;102338.16;;;24.10;30.80
62710;BME280;48770;51.624;5.886;2023-05-29T07:58:54;102338.63;;;24.12;30.66
62710;BME280;48770;51.624;5.886;2023-05-29T08:01:20;102340.59;;;24.12;30.41
62710;BME280;48770;51.624;5.886;2023-05-29T08:03:48;102335.84;;;24.12;30.40
62710;BME280;48770;51.624;5.886;2023-05-29T08:06:14;102342.25;;;24.13;30.46
62710;BME280;48770;51.624;5.886;2023-05-29T08:08:39;102346.69;;;24.14;30.64
62710;BME280;48770;51.624;5.886;2023-05-29T08:11:04;102345.50;;;24.15;30.19
62710;BME280;48770;51.624;5.886;2023-05-29T08:13:30;102351.09;;;24.15;30.46
62710;BME280;48770;51.624;5.886;2023-05-29T08:15:56;102345.19;;;24.16;30.38
62710;BME280;48770;51.624;5.886;2023-05-29T08:18:25;102351.59;;;24.17;30.39
62710;BME280;48770;51.624;5.886;2023-05-29T08:20:50;102350.75;;;24.16;30.44
62710;BME280;48770;51.624;5.886;2023-05-29T08:23:16;102351.59;;;24.17;30.30
62710;BME280;48770;51.624;5.886;2023-05-29T08:25:41;102360.78;;;24.17;30.71
62710;BME280;48770;51.624;5.886;2023-05-29T08:28:07;102355.53;;;24.16;30.41
62710;BME280;48770;51.624;5.886;2023-05-29T08:30:32;102355.19;;;24.17;30.00
62710;BME280;48770;51.624;5.886;2023-05-29T08:32:58;102349.59;;;24.17;30.21
62710;BME280;48770;51.624;5.886;2023-05-29T08:35:23;102346.81;;;24.17;30.14
62710;BME280;48770;51.624;5.886;2023-05-29T08:37:48;102350.75;;;24.16;30.16
62710;BME280;48770;51.624;5.886;2023-05-29T08:40:14;102356.00;;;24.18;30.19
62710;BME280;48770;51.624;5.886;2023-05-29T08:42:45;102360.44;;;24.19;30.13
62710;BME280;48770;51.624;5.886;2023-05-29T08:45:13;102363.25;;;24.19;29.92
62710;BME280;48770;51.624;5.886;2023-05-29T08:47:40;102359.28;;;24.20;29.92
62710;BME280;48770;51.624;5.886;2023-05-29T08:50:06;102362.94;;;24.20;29.95
62710;BME280;48770;51.624;5.886;2023-05-29T08:52:34;102357.81;;;24.22;29.77
62710;BME280;48770;51.624;5.886;2023-05-29T08:55:03;102366.19;;;24.22;29.80
62710;BME280;48770;51.624;5.886;2023-05-29T08:57:29;102362.25;;;24.23;30.14
62710;BME280;48770;51.624;5.886;2023-05-29T08:59:56;102365.03;;;24.23;29.92
62710;BME280;48770;51.624;5.886;2023-05-29T09:02:21;102366.69;;;24.24;30.04
62710;BME280;48770;51.624;5.886;2023-05-29T09:04:47;102365.03;;;24.23;29.81
62710;BME280;48770;51.624;5.886;2023-05-29T09:07:18;102371.44;;;24.24;29.86
62710;BME280;48770;51.624;5.886;2023-05-29T09:09:45;102368.31;;;24.25;29.97
62710;BME280;48770;51.624;5.886;2023-05-29T09:12:11;102367.16;;;24.26;29.60
62710;BME280;48770;51.624;5.886;2023-05-29T09:14:43;102366.34;;;24.26;29.68
62710;BME280;48770;51.624;5.886;2023-05-29T09:17:10;102371.13;;;24.25;29.99
62710;BME280;48770;51.624;5.886;2023-05-29T09:19:37;102374.38;;;24.27;29.56
62710;BME280;48770;51.624;5.886;2023-05-29T09:22:05;102371.59;;;24.27;29.75
62710;BME280;48770;51.624;5.886;2023-05-29T09:24:35;102363.22;;;24.27;29.81
62710;BME280;48770;51.624;5.886;2023-05-29T09:27:02;102362.06;;;24.28;30.16
62710;BME280;48770;51.624;5.886;2023-05-29T09:29:31;102376.88;;;24.29;30.00
62710;BME280;48770;51.624;5.886;2023-05-29T09:31:56;102368.16;;;24.31;29.55
62710;BME280;48770;51.624;5.886;2023-05-29T09:34:25;102377.34;;;24.31;29.96
62710;BME280;48770;51.624;5.886;2023-05-29T09:36:53;102370.94;;;24.31;30.20
62710;BME280;48770;51.624;5.886;2023-05-29T09:39:18;102371.75;;;24.31;29.85
62710;BME280;48770;51.624;5.886;2023-05-29T09:41:46;102375.38;;;24.32;29.84
62710;BME280;48770;51.624;5.886;2023-05-29T09:44:14;102368.63;;;24.33;29.90
62710;BME280;48770;51.624;5.886;2023-05-29T09:46:42;102367.47;;;24.34;29.78
62710;BME280;48770;51.624;5.886;2023-05-29T09:49:11;102372.22;;;24.33;29.91
62710;BME280;48770;51.624;5.886;2023-05-29T09:51:37;102371.06;;;24.34;29.91
62710;BME280;48770;51.624;5.886;2023-05-29T09:54:16;102373.88;;;24.34;29.87
62710;BME280;48770;51.624;5.886;2023-05-29T09:56:45;102363.50;;;24.35;29.90
62710;BME280;48770;51.624;5.886;2023-05-29T09:59:11;102361.53;;;24.35;29.81
62710;BME280;48770;51.624;5.886;2023-05-29T10:01:39;102359.56;;;24.36;29.76
62710;BME280;48770;51.624;5.886;2023-05-29T10:04:06;102365.13;;;24.36;29.70
62710;BME280;48770;51.624;5.886;2023-05-29T10:06:32;102360.38;;;24.36;29.70
62710;BME280;48770;51.624;5.886;2023-05-29T10:09:01;102368.41;;;24.38;29.78
62710;BME280;48770;51.624;5.886;2023-05-29T10:11:28;102362.00;;;24.37;29.66
62710;BME280;48770;51.624;5.886;2023-05-29T10:13:57;102352.94;;;24.40;29.87
62710;BME280;48770;51.624;5.886;2023-05-29T10:16:23;102350.94;;;24.41;29.62
62710;BME280;48770;51.624;5.886;2023-05-29T10:18:56;102348.16;;;24.41;29.81
62710;BME280;48770;51.624;5.886;2023-05-29T10:21:26;102349.78;;;24.42;29.87
62710;BME280;48770;51.624;5.886;2023-05-29T10:23:54;102347.81;;;24.42;30.03
62710;BME280;48770;51.624;5.886;2023-05-29T10:26:22;102348.63;;;24.43;30.07
62710;BME280;48770;51.624;5.886;2023-05-29T10:28:55;102353.06;;;24.44;29.63
62710;BME280;48770;51.624;5.886;2023-05-29T10:31:32;102354.22;;;24.43;29.73
62710;BME280;48770;51.624;5.886;2023-05-29T10:34:39;102352.59;;;24.42;29.61
62710;BME280;48770;51.624;5.886;2023-05-29T10:37:16;102359.00;;;24.42;29.97
62710;BME280;48770;51.624;5.886;2023-05-29T10:39:44;102350.28;;;24.44;29.69
62710;BME280;48770;51.624;5.886;2023-05-29T10:45:03;102348.63;;;24.43;29.84
62710;BME280;48770;51.624;5.886;2023-05-29T10:47:29;102346.31;;;24.45;29.78
62710;BME280;48770;51.624;5.886;2023-05-29T10:49:59;102351.25;;;24.48;29.73
62710;BME280;48770;51.624;5.886;2023-05-29T10:52:25;102342.03;;;24.47;29.70
62710;BME280;48770;51.624;5.886;2023-05-29T10:54:52;102343.34;;;24.50;29.89
62710;BME280;48770;51.624;5.886;2023-05-29T10:57:18;102347.78;;;24.51;30.02
62710;BME280;48770;51.624;5.886;2023-05-29T10:59:45;102343.81;;;24.52;29.64
62710;BME280;48770;51.624;5.886;2023-05-29T11:02:11;102342.66;;;24.53;29.64
62710;BME280;48770;51.624;5.886;2023-05-29T11:04:42;102344.63;;;24.52;29.66
62710;BME280;48770;51.624;5.886;2023-05-29T11:07:50;102349.41;;;24.52;29.92
62710;BME280;48770;51.624;5.886;2023-05-29T11:10:17;102348.25;;;24.53;29.99
62710;BME280;48770;51.624;5.886;2023-05-29T11:12:56;102348.25;;;24.53;29.69
62710;BME280;48770;51.624;5.886;2023-05-29T11:15:23;102349.88;;;24.54;29.89
62710;BME280;48770;51.624;5.886;2023-05-29T11:17:49;102339.16;;;24.56;29.81
62710;BME280;48770;51.624;5.886;2023-05-29T11:20:23;102342.44;;;24.58;29.70
62710;BME280;48770;51.624;5.886;2023-05-29T11:25:23;102345.72;;;24.60;29.86
62710;BME280;48770;51.624;5.886;2023-05-29T11:27:49;102338.94;;;24.61;29.76
62710;BME280;48770;51.624;5.886;2023-05-29T11:30:17;102344.19;;;24.63;29.50
62710;BME280;48770;51.624;5.886;2023-05-29T11:32:44;102340.25;;;24.64;29.66
62710;BME280;48770;51.624;5.886;2023-05-29T11:35:12;102338.25;;;24.64;29.50
62710;BME280;48770;51.624;5.886;2023-05-29T11:37:39;102335.94;;;24.66;29.72
62710;BME280;48770;51.624;5.886;2023-05-29T11:40:09;102333.63;;;24.68;29.58
62710;BME280;48770;51.624;5.886;2023-05-29T11:42:41;102331.97;;;24.67;29.68
62710;BME280;48770;51.624;5.886;2023-05-29T11:45:18;102331.63;;;24.69;29.66
62710;BME280;48770;51.624;5.886;2023-05-29T11:48:04;102331.97;;;24.67;29.58
62710;BME280;48770;51.624;5.886;2023-05-29T11:50:31;102327.69;;;24.70;29.65
62710;BME280;48770;51.624;5.886;2023-05-29T11:52:58;102324.53;;;24.71;29.74
62710;BME280;48770;51.624;5.886;2023-05-29T11:55:24;102330.63;;;24.73;29.41
62710;BME280;48770;51.624;5.886;2023-05-29T11:57:51;102326.66;;;24.74;30.00
62710;BME280;48770;51.624;5.886;2023-05-29T12:00:20;102321.91;;;24.75;29.69
62710;BME280;48770;51.624;5.886;2023-05-29T12:02:47;102329.94;;;24.76;29.57
62710;BME280;48770;51.624;5.886;2023-05-29T12:05:16;102321.56;;;24.76;29.74
62710;BME280;48770;51.624;5.886;2023-05-29T12:07:50;102323.19;;;24.77;29.42
62710;BME280;48770;51.624;5.886;2023-05-29T12:10:16;102338.13;;;24.60;29.91
62710;BME280;48770;51.624;5.886;2023-05-29T12:12:47;102329.31;;;24.71;29.75
62710;BME280;48770;51.624;5.886;2023-05-29T12:15:12;102320.25;;;24.74;29.61
62710;BME280;48770;51.624;5.886;2023-05-29T12:17:40;102331.56;;;24.77;29.73
62710;BME280;48770;51.624;5.886;2023-05-29T12:20:06;102319.22;;;24.78;29.88
62710;BME280;48770;51.624;5.886;2023-05-29T12:22:38;102321.34;;;24.81;29.56
62710;BME280;48770;51.624;5.886;2023-05-29T12:25:06;102319.34;;;24.82;29.54
62710;BME280;48770;51.624;5.886;2023-05-29T12:27:32;102317.38;;;24.82;29.52
62710;BME280;48770;51.624;5.886;2023-05-29T12:30:01;102323.44;;;24.84;29.71
62710;BME280;48770;51.624;5.886;2023-05-29T12:32:37;102321.47;;;24.85;29.51
62710;BME280;48770;51.624;5.886;2023-05-29T12:37:58;102318.31;;;24.86;29.45
62710;BME280;48770;51.624;5.886;2023-05-29T12:40:25;102324.38;;;24.88;29.17
62710;BME280;48770;51.624;5.886;2023-05-29T12:45:24;102318.09;;;24.91;29.21
62710;BME280;48770;51.624;5.886;2023-05-29T12:48:05;102315.28;;;24.91;29.26
62710;BME280;48770;51.624;5.886;2023-05-29T12:50:35;102321.72;;;24.92;29.10
62710;BME280;48770;51.624;5.886;2023-05-29T12:53:04;102312.97;;;24.94;29.22
62710;BME280;48770;51.624;5.886;2023-05-29T12:55:37;102321.81;;;24.96;28.88
62710;BME280;48770;51.624;5.886;2023-05-29T12:58:07;102319.50;;;24.98;29.10
62710;BME280;48770;51.624;5.886;2023-05-29T13:00:38;102327.06;;;24.97;29.29
62710;BME280;48770;51.624;5.886;2023-05-29T13:03:04;102326.78;;;24.99;28.95
62710;BME280;48770;51.624;5.886;2023-05-29T13:05:31;102326.78;;;24.99;28.99
62710;BME280;48770;51.624;5.886;2023-05-29T13:07:56;102317.22;;;25.00;29.11